createdAt,value
2023-05-01T00:00:00.000Z,30.3
2023-05-01T00:01:00.000Z,30.0
2023-05-01T00:02:00.000Z,29.1
2023-05-01T00:03:00.000Z,29.0
2023-05-01T00:04:00.000Z,29.3
2023-05-01T00:05:00.000Z,28.8
2023-05-01T00:06:00.000Z,28.6
2023-05-01T00:07:00.000Z,28.7
2023-05-01T00:08:00.000Z,28.3
2023-05-01T00:09:00.000Z,28.4
2023-05-01T00:10:00.000Z,28.6
2023-05-01T00:11:00.000Z,29.2
2023-05-01T00:12:00.000Z,28.6
2023-05-01T00:13:00.000Z,27.9
2023-05-01T00:14:00.000Z,27.8
2023-05-01T00:15:00.000Z,27.7
2023-05-01T00:16:00.000Z,28.2
2023-05-01T00:17:00.000Z,28.1
2023-05-01T00:18:00.000Z,28.5
2023-05-01T00:19:00.000Z,28.7
2023-05-01T00:21:00.000Z,27.1
2023-05-01T00:22:00.000Z,27.3
2023-05-01T00:23:00.000Z,28.3
2023-05-01T00:24:00.000Z,28.9
2023-05-01T00:26:00.000Z,28.3
2023-05-01T00:27:00.000Z,28.7
2023-05-01T00:28:00.000Z,28.6
2023-05-01T00:29:00.000Z,28.8
2023-05-01T00:30:00.000Z,28.6
2023-05-01T00:31:00.000Z,28.1
2023-05-01T00:32:00.000Z,28.5
2023-05-01T00:33:00.000Z,28.4
2023-05-01T00:34:00.000Z,28.2
2023-05-01T00:35:00.000Z,28.2
2023-05-01T00:36:00.000Z,28.5
2023-05-01T00:37:00.000Z,28.6
2023-05-01T00:38:00.000Z,28.0
2023-05-01T00:39:00.000Z,28.1
2023-05-01T00:40:00.000Z,27.9
2023-05-01T00:41:00.000Z,27.1
2023-05-01T00:42:00.000Z,26.5
2023-05-01T00:43:00.000Z,25.5
2023-05-01T00:44:00.000Z,25.5
2023-05-01T00:45:00.000Z,25.1
2023-05-01T00:46:00.000Z,26.0
2023-05-01T00:47:00.000Z,26.3
2023-05-01T00:48:00.000Z,26.7
2023-05-01T00:49:00.000Z,26.0
2023-05-01T00:50:00.000Z,25.0
2023-05-01T00:51:00.000Z,25.3
2023-05-01T00:52:00.000Z,24.9
2023-05-01T00:53:00.000Z,24.7
2023-05-01T00:54:00.000Z,24.5
2023-05-01T00:55:00.000Z,23.6
2023-05-01T00:56:00.000Z,23.6
2023-05-01T00:57:00.000Z,22.4
2023-05-01T00:58:00.000Z,22.0
2023-05-01T00:59:00.000Z,23.4
2023-05-01T01:00:00.000Z,23.8
2023-05-01T01:01:00.000Z,23.5
2023-05-01T01:02:00.000Z,23.3
2023-05-01T01:03:00.000Z,22.7
2023-05-01T01:04:00.000Z,23.2
2023-05-01T01:05:00.000Z,22.7
2023-05-01T01:06:00.000Z,21.3
2023-05-01T01:07:00.000Z,20.8
2023-05-01T01:08:00.000Z,20.6
2023-05-01T01:09:00.000Z,20.3
2023-05-01T01:10:00.000Z,20.9
2023-05-01T01:11:00.000Z,21.1
2023-05-01T01:12:00.000Z,20.9
2023-05-01T01:13:00.000Z,20.4
2023-05-01T01:14:00.000Z,20.0
2023-05-01T01:15:00.000Z,19.9
2023-05-01T01:16:00.000Z,20.0
2023-05-01T01:17:00.000Z,19.8
2023-05-01T01:18:00.000Z,20.6
2023-05-01T01:19:00.000Z,20.2
2023-05-01T01:20:00.000Z,20.5
2023-05-01T01:21:00.000Z,20.5
2023-05-01T01:22:00.000Z,21.2
2023-05-01T01:23:00.000Z,22.2
2023-05-01T01:24:00.000Z,21.2
2023-05-01T01:25:00.000Z,20.2
2023-05-01T01:26:00.000Z,18.8
2023-05-01T01:27:00.000Z,18.5
2023-05-01T01:28:00.000Z,18.4
2023-05-01T01:29:00.000Z,18.3
2023-05-01T01:30:00.000Z,18.3
2023-05-01T01:31:00.000Z,18.3
2023-05-01T01:32:00.000Z,19.3
2023-05-01T01:33:00.000Z,19.4
2023-05-01T01:34:00.000Z,19.2
2023-05-01T01:35:00.000Z,19.0
2023-05-01T01:36:00.000Z,19.5
2023-05-01T01:37:00.000Z,20.5
2023-05-01T01:38:00.000Z,20.8
2023-05-01T01:39:00.000Z,20.4
2023-05-01T01:40:00.000Z,19.5
2023-05-01T01:41:00.000Z,19.8
2023-05-01T01:42:00.000Z,19.8
2023-05-01T01:43:00.000Z,19.6
2023-05-01T01:44:00.000Z,18.1
2023-05-01T01:48:00.000Z,32.9
2023-05-01T01:52:00.000Z,25.0
2023-05-01T01:53:00.000Z,25.8
2023-05-01T01:54:00.000Z,21.5
2023-05-01T01:55:00.000Z,21.1
2023-05-01T01:56:00.000Z,22.9
2023-05-01T01:57:00.000Z,21.1
2023-05-01T01:58:00.000Z,22.8
2023-05-01T01:59:00.000Z,19.7
2023-05-01T02:00:00.000Z,19.1
